LFRQ/UIP METAR and TAF weather

Enter ICAO airport designator
Station Type Date Time Source
LFRQ METAR 2021/03/01 03:30 UTC NOAA

LFRQ 010330Z AUTO 04006KT CAVOK 04/01 Q1025


Station Type Date Time Source
LFRQ Decoded METAR 2021/03/01 03:30 UTC NOAA

Quimper, France (LFRQ) 47-58N 004-10W 94M
Feb 28, 2021 - 10:30 PM EST / 2021.03.01 0330 UTC
Wind: from the NE (040 degrees) at 7 MPH (6 KT):0
Visibility: greater than 7 mile(s):0
Temperature: 39 F (4 C)
Dew Point: 33 F (1 C)
Relative Humidity: 80%
Pressure (altimeter): 30.27 in. Hg (1025 hPa)
ob: LFRQ 010330Z AUTO 04006KT CAVOK 04/01 Q1025
cycle: 3

Station Type Date Time Source
LFRQ TAF 2021/02/28 22:12 UTC NOAA

TAF LFRQ 282205Z 2822/0118 CNL

Example: see airport list